Weather at Nyge Airport [CLOSED]

Public forecast

Using degrees Celsius for public forecast. Weather courtesy of forecast.io.

Closest aviation weather report (METAR) to Nyge Airport

Closest report is Stockholm Skavsta Airport, 5.0 nm (9.2 km) WNW. Retrieved 2021/10/16 02:20 UTC (36 minutes ago):

ESKN 160220Z 25006KT CAVOK 01/M01 Q1004

Closest aviation forecast (TAF) to Nyge Airport

Closest forecast is Stockholm Skavsta Airport, 5.0 nm (9.2 km) WNW. Retrieved 2021-10-16 00:00 UTC (3 hours ago):

TAF ESKN 152330Z 1600/1624 27009KT CAVOK